Time;durP1;ratioP1;P1;durP2;ratioP2;P2;SDS_P1;SDS_P2;PMS_P1;PMS_P2;Temp;Humidity;BMP_temperature;BMP_pressure;BME280_temperature;BME280_humidity;BME280_pressure;Samples;Min_cycle;Max_cycle;Signal;HPM_P1;HPM_P2
2022/12/29 00:01:52;;;;;;;;;;;;;;;8.17;100.00;99624.91;5057369;28;19980;-78
2022/12/29 00:04:18;;;;;;;;;;;;;;;8.16;100.00;99616.13;5048854;28;19982;-78
2022/12/29 00:06:43;;;;;;;;;;;;;;;8.14;100.00;99615.38;5060448;28;20019;-77
2022/12/29 00:09:10;;;;;;;;;;;;;;;8.13;100.00;99608.41;5082519;28;20500;-77
2022/12/29 00:11:35;;;;;;;;;;;;;;;8.10;100.00;99617.34;5059595;28;20677;-78
2022/12/29 00:16:48;;;;;;;;;;;;;;;8.07;100.00;99617.50;5074993;28;19931;-77
2022/12/29 00:35:39;;;;;;;;;;;;;;;7.91;100.00;99591.16;5085572;28;20015;-76
2022/12/29 00:46:17;;;;;;;;;;;;;;;7.88;100.00;99586.03;5087446;28;19985;-77
2022/12/29 00:51:26;;;;;;;;;;;;;;;7.88;100.00;99578.13;5086872;28;19932;-77
2022/12/29 00:53:51;;;;;;;;;;;;;;;7.89;100.00;99595.63;5066477;28;19928;-78
2022/12/29 00:56:17;;;;;;;;;;;;;;;7.90;100.00;99576.25;5063666;28;19924;-78
2022/12/29 00:58:42;;;;;;;;;;;;;;;7.90;100.00;99586.78;5045200;28;20469;-78
2022/12/29 01:01:08;;;;;;;;;;;;;;;7.88;100.00;99575.47;5078732;28;19940;-77
2022/12/29 01:03:34;;;;;;;;;;;;;;;7.88;100.00;99575.47;5061957;28;20478;-77
2022/12/29 01:06:06;;;;;;;;;;;;;;;7.90;100.00;99573.59;5086024;28;20022;-77
2022/12/29 01:08:32;;;;;;;;;;;;;;;7.91;100.00;99583.25;5057062;28;22076;-77
2022/12/29 01:11:05;;;;;;;;;;;;;;;7.92;100.00;99577.03;5045281;28;19965;-78
2022/12/29 01:13:30;;;;;;;;;;;;;;;7.94;100.00;99588.31;5043135;28;19928;-77
2022/12/29 01:15:56;;;;;;;;;;;;;;;7.95;100.00;99582.13;5060635;28;20271;-78
2022/12/29 01:18:21;;;;;;;;;;;;;;;7.96;100.00;99575.06;5078277;28;19997;-78
2022/12/29 01:20:47;;;;;;;;;;;;;;;7.98;100.00;99568.78;5060365;28;19934;-77
2022/12/29 01:23:12;;;;;;;;;;;;;;;7.99;100.00;99565.22;5080104;28;19960;-77
2022/12/29 01:25:37;;;;;;;;;;;;;;;8.01;100.00;99555.41;5061415;28;20383;-77
2022/12/29 01:28:03;;;;;;;;;;;;;;;8.04;100.00;99564.94;5062193;28;20006;-77
2022/12/29 01:30:28;;;;;;;;;;;;;;;8.05;100.00;99558.75;5059581;28;19930;-77
2022/12/29 01:32:54;;;;;;;;;;;;;;;8.06;100.00;99564.88;5078383;28;19987;-78
2022/12/29 01:35:19;;;;;;;;;;;;;;;8.07;100.00;99561.28;5085602;28;20013;-77
2022/12/29 01:37:44;;;;;;;;;;;;;;;8.06;100.00;99554.34;5083361;28;20026;-77
2022/12/29 01:40:10;;;;;;;;;;;;;;;8.07;100.00;99561.28;5079715;28;20345;-76
2022/12/29 01:42:35;;;;;;;;;;;;;;;8.06;100.00;99552.53;5081174;28;20379;-77
2022/12/29 01:45:02;;;;;;;;;;;;;;;8.06;100.00;99541.16;5078314;28;19928;-77
2022/12/29 01:47:46;;;;;;;;;;;;;;;8.05;100.00;99537.66;5078278;28;19924;-77
2022/12/29 01:50:11;;;;;;;;;;;;;;;8.06;100.00;99538.50;5077673;27;19919;-78
2022/12/29 01:52:37;;;;;;;;;;;;;;;8.05;100.00;99536.81;5079167;28;19934;-78
2022/12/29 01:55:03;;;;;;;;;;;;;;;8.06;100.00;99533.25;5061361;28;19935;-77
2022/12/29 01:57:31;;;;;;;;;;;;;;;8.05;100.00;99537.66;5059110;28;20512;-77
2022/12/29 02:00:08;;;;;;;;;;;;;;;8.04;100.00;99545.63;5062450;28;19975;-78
2022/12/29 02:02:33;;;;;;;;;;;;;;;8.03;100.00;99547.44;5080323;28;19947;-78
2022/12/29 02:04:59;;;;;;;;;;;;;;;8.02;100.00;99565.03;5080724;28;19956;-78
2022/12/29 02:07:25;;;;;;;;;;;;;;;8.01;100.00;99557.22;5063106;28;19931;-77
2022/12/29 02:09:51;;;;;;;;;;;;;;;8.01;100.00;99534.34;5061663;28;19927;-77
2022/12/29 02:12:16;;;;;;;;;;;;;;;7.97;100.00;99538.09;5059343;28;21497;-78
2022/12/29 02:14:42;;;;;;;;;;;;;;;7.94;100.00;99517.16;5077015;28;19935;-77
2022/12/29 02:17:19;;;;;;;;;;;;;;;7.92;100.00;99532.22;5066670;28;19928;-77
2022/12/29 02:19:48;;;;;;;;;;;;;;;7.86;100.00;99533.38;5084496;28;19932;-77
2022/12/29 02:22:16;;;;;;;;;;;;;;;7.83;100.00;99530.94;5085358;28;20041;-78
2022/12/29 02:24:54;;;;;;;;;;;;;;;7.80;100.00;99539.00;5071020;28;19974;-77
2022/12/29 02:27:22;;;;;;;;;;;;;;;7.77;100.00;99557.63;5074002;28;21510;-78
2022/12/29 02:29:50;;;;;;;;;;;;;;;7.75;100.00;99536.63;5083372;28;19928;-78
2022/12/29 02:32:19;;;;;;;;;;;;;;;7.74;100.00;99539.38;5084875;28;19956;-78
2022/12/29 02:34:49;;;;;;;;;;;;;;;7.74;100.00;99545.47;5082865;28;20066;-77
2022/12/29 02:37:27;;;;;;;;;;;;;;;7.70;100.00;99528.13;5067404;28;19924;-77
2022/12/29 02:39:58;;;;;;;;;;;;;;;7.63;100.00;99518.84;5083869;28;19978;-78
2022/12/29 02:42:24;;;;;;;;;;;;;;;7.59;100.00;99512.06;5085596;28;19978;-78
2022/12/29 02:44:58;;;;;;;;;;;;;;;7.57;100.00;99516.56;5082972;28;20019;-78
2022/12/29 02:47:33;;;;;;;;;;;;;;;7.57;100.00;99517.41;5059921;28;19930;-78
2022/12/29 02:50:01;;;;;;;;;;;;;;;7.56;100.00;99523.59;5075549;28;20395;-77
2022/12/29 02:52:27;;;;;;;;;;;;;;;7.57;100.00;99521.84;5083529;28;19931;-77
2022/12/29 02:54:53;;;;;;;;;;;;;;;7.58;100.00;99523.53;5060241;28;19931;-77
2022/12/29 02:57:21;;;;;;;;;;;;;;;7.58;100.00;99502.47;5079001;28;19971;-77
2022/12/29 03:00:02;;;;;;;;;;;;;;;7.57;100.00;99511.31;5059426;28;20367;-78
2022/12/29 03:02:39;;;;;;;;;;;;;;;7.54;100.00;99516.72;5080371;28;20392;-77
2022/12/29 03:05:20;;;;;;;;;;;;;;;7.53;100.00;99501.84;5063571;28;19923;-77
2022/12/29 03:07:51;;;;;;;;;;;;;;;7.51;100.00;99498.47;5080876;28;20006;-77
2022/12/29 03:10:17;;;;;;;;;;;;;;;7.46;100.00;99507.44;5078068;28;20280;-77
2022/12/29 03:16:02;;;;;;;;;;;;;;;7.37;100.00;99505.31;5063407;28;19931;-77
2022/12/29 03:18:30;;;;;;;;;;;;;;;7.32;100.00;99500.28;5063693;28;19969;-77
2022/12/29 03:21:19;;;;;;;;;;;;;;;7.27;100.00;99504.09;5076070;28;19924;-78
2022/12/29 03:23:47;;;;;;;;;;;;;;;7.21;100.00;99494.75;5066139;28;20414;-77
2022/12/29 03:26:13;;;;;;;;;;;;;;;7.20;100.00;99498.31;5061298;28;19969;-78
2022/12/29 03:28:39;;;;;;;;;;;;;;;7.18;100.00;99506.28;5059180;28;19927;-78
2022/12/29 03:31:04;;;;;;;;;;;;;;;7.15;100.00;99492.44;5058822;28;19924;-77
2022/12/29 03:33:30;;;;;;;;;;;;;;;7.10;100.00;99492.69;5061126;28;19924;-78
2022/12/29 03:35:57;;;;;;;;;;;;;;;7.05;100.00;99502.59;5058881;28;19967;-77
2022/12/29 03:38:28;;;;;;;;;;;;;;;7.00;100.00;99501.97;5057533;28;20466;-78
2022/12/29 03:40:55;;;;;;;;;;;;;;;6.95;100.00;99506.63;5057712;28;21442;-78
2022/12/29 03:43:21;;;;;;;;;;;;;;;6.92;100.00;99512.91;5060698;28;19990;-77
2022/12/29 03:45:46;;;;;;;;;;;;;;;6.87;100.00;99518.41;5059327;28;19937;-78
2022/12/29 03:48:11;;;;;;;;;;;;;;;6.82;100.00;99515.16;5077303;28;20322;-77
2022/12/29 03:50:37;;;;;;;;;;;;;;;6.81;100.00;99523.97;5076950;28;19935;-78
2022/12/29 03:53:02;;;;;;;;;;;;;;;6.76;100.00;99508.41;5058658;28;19923;-77
2022/12/29 03:55:28;;;;;;;;;;;;;;;6.72;100.00;99503.41;5059487;28;19928;-77
2022/12/29 03:57:53;;;;;;;;;;;;;;;6.68;100.00;99515.00;5079123;28;19936;-78
2022/12/29 04:00:19;;;;;;;;;;;;;;;6.66;100.00;99515.09;5061598;28;19959;-78
2022/12/29 04:02:44;;;;;;;;;;;;;;;6.62;100.00;99513.53;5082768;28;19992;-78
2022/12/29 04:05:09;;;;;;;;;;;;;;;6.61;100.00;99519.72;5082588;28;19950;-78
2022/12/29 04:07:35;;;;;;;;;;;;;;;6.58;100.00;99515.47;5083529;28;19927;-78
2022/12/29 04:10:00;;;;;;;;;;;;;;;6.56;100.00;99525.22;5087409;28;19927;-77
2022/12/29 04:12:26;;;;;;;;;;;;;;;6.54;100.00;99523.59;5065969;28;20007;-77
2022/12/29 04:14:51;;;;;;;;;;;;;;;6.52;100.00;99519.25;5058211;28;20042;-78
2022/12/29 04:17:16;;;;;;;;;;;;;;;6.51;100.00;99525.47;5087395;28;19976;-78
2022/12/29 04:19:42;;;;;;;;;;;;;;;6.49;100.00;99515.94;5088486;28;19931;-78
2022/12/29 04:22:07;;;;;;;;;;;;;;;6.49;100.00;99534.34;5084626;28;20279;-77
2022/12/29 04:24:33;;;;;;;;;;;;;;;6.48;100.00;99512.44;5087507;28;19977;-78
2022/12/29 04:26:58;;;;;;;;;;;;;;;6.48;100.00;99517.69;5066820;28;20399;-78
2022/12/29 04:29:23;;;;;;;;;;;;;;;6.48;100.00;99524.75;5080901;28;19931;-77
2022/12/29 04:31:49;;;;;;;;;;;;;;;6.48;100.00;99524.75;5064490;28;20011;-78
2022/12/29 04:34:14;;;;;;;;;;;;;;;6.49;100.00;99526.47;5082055;28;20291;-78
2022/12/29 04:36:40;;;;;;;;;;;;;;;6.54;100.00;99515.69;5082519;28;20034;-77
2022/12/29 04:39:05;;;;;;;;;;;;;;;6.57;100.00;99526.91;5087172;28;20383;-78
2022/12/29 04:41:31;;;;;;;;;;;;;;;6.60;100.00;99513.59;5067815;28;20378;-78
2022/12/29 04:43:56;;;;;;;;;;;;;;;6.64;100.00;99523.06;5049024;28;19928;-78
2022/12/29 04:46:22;;;;;;;;;;;;;;;6.67;100.00;99527.31;5042383;28;20010;-77
2022/12/29 04:48:47;;;;;;;;;;;;;;;6.69;100.00;99532.50;5066835;28;19970;-78
2022/12/29 04:51:13;;;;;;;;;;;;;;;6.71;100.00;99533.28;5084577;28;19932;-78
2022/12/29 04:53:38;;;;;;;;;;;;;;;6.72;100.00;99533.19;5060439;28;19932;-77
2022/12/29 04:56:04;;;;;;;;;;;;;;;6.74;100.00;99533.09;5080491;28;19936;-78
2022/12/29 04:58:29;;;;;;;;;;;;;;;6.73;100.00;99536.66;5081671;28;19924;-77
2022/12/29 05:00:54;;;;;;;;;;;;;;;6.74;100.00;99544.47;5080393;28;19938;-78
2022/12/29 05:03:20;;;;;;;;;;;;;;;6.73;100.00;99539.28;5079941;28;19928;-77
2022/12/29 05:05:45;;;;;;;;;;;;;;;6.69;100.00;99540.41;5079269;28;19932;-77
2022/12/29 05:08:10;;;;;;;;;;;;;;;6.63;100.00;99544.16;5082986;28;19923;-78
2022/12/29 05:10:36;;;;;;;;;;;;;;;6.57;100.00;99539.19;5067482;28;20026;-78
2022/12/29 05:13:01;;;;;;;;;;;;;;;6.53;100.00;99551.66;5082467;28;20294;-78
2022/12/29 05:15:27;;;;;;;;;;;;;;;6.50;100.00;99546.56;5078967;28;20018;-78
2022/12/29 05:17:52;;;;;;;;;;;;;;;6.49;100.00;99545.69;5078475;28;19927;-77
2022/12/29 05:20:18;;;;;;;;;;;;;;;6.50;100.00;99543.94;5065862;28;19928;-77
2022/12/29 05:22:43;;;;;;;;;;;;;;;6.51;100.00;99543.88;5041474;28;19954;-77
2022/12/29 05:25:09;;;;;;;;;;;;;;;6.54;100.00;99553.34;5061358;28;19924;-78
2022/12/29 05:27:34;;;;;;;;;;;;;;;6.55;100.00;99549.81;5048926;28;19924;-78
2022/12/29 05:29:59;;;;;;;;;;;;;;;6.57;100.00;99547.09;5081548;28;20298;-78
2022/12/29 05:32:25;;;;;;;;;;;;;;;6.59;100.00;99548.72;5061827;28;19928;-78
2022/12/29 05:34:50;;;;;;;;;;;;;;;6.60;100.00;99545.16;5081682;28;19935;-78
2022/12/29 05:37:16;;;;;;;;;;;;;;;6.60;100.00;99536.44;5080969;28;20555;-78
2022/12/29 05:39:41;;;;;;;;;;;;;;;6.60;100.00;99550.41;5067617;28;20375;-78
2022/12/29 05:42:06;;;;;;;;;;;;;;;6.63;100.00;99552.06;5083374;28;20271;-77
2022/12/29 05:44:32;;;;;;;;;;;;;;;6.66;100.00;99551.91;5079191;28;20010;-77
2022/12/29 05:46:57;;;;;;;;;;;;;;;6.68;100.00;99555.31;5079705;28;20125;-78
2022/12/29 05:49:22;;;;;;;;;;;;;;;6.70;100.00;99542.94;5080167;28;19928;-77
2022/12/29 05:51:48;;;;;;;;;;;;;;;6.73;100.00;99544.56;5080230;28;20438;-77
2022/12/29 05:54:13;;;;;;;;;;;;;;;6.73;100.00;99547.19;5058551;28;19932;-78
2022/12/29 05:56:39;;;;;;;;;;;;;;;6.73;100.00;99541.94;5080218;28;19949;-77
2022/12/29 05:59:04;;;;;;;;;;;;;;;6.73;100.00;99549.81;5083847;28;19932;-77
2022/12/29 06:01:30;;;;;;;;;;;;;;;6.71;100.00;99547.25;5061988;28;19932;-77
2022/12/29 06:03:55;;;;;;;;;;;;;;;6.68;100.00;99543.94;5078119;28;19928;-77
2022/12/29 06:06:20;;;;;;;;;;;;;;;6.63;100.00;99555.53;5080971;28;19935;-77
2022/12/29 06:08:46;;;;;;;;;;;;;;;6.59;100.00;99563.66;5076670;27;20386;-78
2022/12/29 06:11:11;;;;;;;;;;;;;;;6.56;100.00;99558.53;5084760;28;20018;-77
2022/12/29 06:13:36;;;;;;;;;;;;;;;6.53;100.00;99575.31;5067364;28;19928;-77
2022/12/29 06:16:02;;;;;;;;;;;;;;;6.49;100.00;99571.16;5085156;28;19955;-77
2022/12/29 06:18:27;;;;;;;;;;;;;;;6.50;100.00;99572.84;5083745;28;19931;-78
2022/12/29 06:20:53;;;;;;;;;;;;;;;6.53;100.00;99583.22;5083892;28;19928;-78
2022/12/29 06:23:18;;;;;;;;;;;;;;;6.55;100.00;99568.22;5084216;28;19935;-77
2022/12/29 06:25:44;;;;;;;;;;;;;;;6.57;100.00;99566.38;5085107;28;19939;-77
2022/12/29 06:28:10;;;;;;;;;;;;;;;6.59;100.00;99572.38;5085268;28;20421;-77
2022/12/29 06:30:36;;;;;;;;;;;;;;;6.63;100.00;99545.03;5055408;28;19924;-77
2022/12/29 06:33:01;;;;;;;;;;;;;;;6.63;100.00;99563.44;5085369;28;20297;-77
2022/12/29 06:35:26;;;;;;;;;;;;;;;6.64;100.00;99559.88;5085891;28;20272;-77
2022/12/29 06:37:52;;;;;;;;;;;;;;;6.65;100.00;99564.19;5065442;28;19963;-77
2022/12/29 06:40:17;;;;;;;;;;;;;;;6.71;100.00;99554.31;5065237;28;19976;-77
2022/12/29 06:42:42;;;;;;;;;;;;;;;6.77;100.00;99559.28;5084860;28;19981;-77
2022/12/29 06:45:08;;;;;;;;;;;;;;;6.80;100.00;99561.72;5083972;28;20425;-77
2022/12/29 06:47:34;;;;;;;;;;;;;;;6.82;100.00;99559.03;5068549;28;19964;-77
2022/12/29 06:49:59;;;;;;;;;;;;;;;6.80;100.00;99559.09;5066012;28;20440;-77
2022/12/29 06:52:25;;;;;;;;;;;;;;;6.78;100.00;99567.09;5084329;28;19950;-78
2022/12/29 06:54:50;;;;;;;;;;;;;;;6.77;100.00;99559.28;5065706;28;19949;-77
2022/12/29 06:57:16;;;;;;;;;;;;;;;6.78;100.00;99560.97;5084192;28;19930;-77
2022/12/29 06:59:41;;;;;;;;;;;;;;;6.75;100.00;99555.88;5065696;28;19928;-78
2022/12/29 07:02:07;;;;;;;;;;;;;;;6.72;100.00;99562.13;5083958;28;20039;-77
2022/12/29 07:04:32;;;;;;;;;;;;;;;6.72;100.00;99577.06;5084654;28;19931;-77
2022/12/29 07:06:57;;;;;;;;;;;;;;;6.77;100.00;99565.34;5084838;28;19932;-77
2022/12/29 07:09:23;;;;;;;;;;;;;;;6.84;100.00;99560.66;5069267;28;19928;-76
2022/12/29 07:11:48;;;;;;;;;;;;;;;6.89;100.00;99550.75;5053509;28;19966;-77
2022/12/29 07:14:14;;;;;;;;;;;;;;;6.93;100.00;99560.19;5081310;28;19928;-77
2022/12/29 07:16:39;;;;;;;;;;;;;;;6.97;100.00;99568.78;5084438;28;19927;-76
2022/12/29 07:19:05;;;;;;;;;;;;;;;7.00;100.00;99571.25;5084296;28;19924;-77
2022/12/29 07:21:31;;;;;;;;;;;;;;;7.04;100.00;99558.81;5077081;28;19928;-77
2022/12/29 07:23:56;;;;;;;;;;;;;;;7.09;100.00;99563.81;5064388;28;20505;-77
2022/12/29 07:26:21;;;;;;;;;;;;;;;7.12;100.00;99569.78;5084251;28;20028;-77
2022/12/29 07:28:47;;;;;;;;;;;;;;;7.15;100.00;99563.50;5083819;28;20919;-77
2022/12/29 07:31:19;;;;;;;;;;;;;;;7.15;100.00;99566.97;5064170;28;19924;-77
2022/12/29 07:33:44;;;;;;;;;;;;;;;7.15;100.00;99580.13;5071353;28;19995;-77
2022/12/29 07:36:10;;;;;;;;;;;;;;;7.08;100.00;99570.84;5077935;28;19938;-77
2022/12/29 07:38:36;;;;;;;;;;;;;;;7.01;100.00;99562.44;5072286;28;20279;-77
2022/12/29 07:41:01;;;;;;;;;;;;;;;6.98;100.00;99588.06;5076383;28;20041;-77
2022/12/29 07:43:27;;;;;;;;;;;;;;;6.94;100.00;99584.72;5041017;28;20556;-77
2022/12/29 07:45:52;;;;;;;;;;;;;;;6.90;100.00;99589.28;5054888;28;19931;-78
2022/12/29 07:48:17;;;;;;;;;;;;;;;6.85;100.00;99579.91;5060666;28;19943;-77
2022/12/29 07:50:43;;;;;;;;;;;;;;;6.82;100.00;99599.34;5076482;28;19939;-78
2022/12/29 07:53:08;;;;;;;;;;;;;;;6.81;100.00;99602.06;5042548;28;20077;-77
2022/12/29 07:55:33;;;;;;;;;;;;;;;6.78;100.00;99603.06;5042735;28;20024;-78
2022/12/29 07:57:59;;;;;;;;;;;;;;;6.75;100.00;99598.78;5072446;28;19938;-78
2022/12/29 08:00:24;;;;;;;;;;;;;;;6.74;100.00;99606.75;5055951;28;20047;-78
2022/12/29 08:02:49;;;;;;;;;;;;;;;6.73;100.00;99599.78;5071416;28;20698;-77
2022/12/29 08:05:15;;;;;;;;;;;;;;;6.72;100.00;99613.88;5082648;28;19928;-76
2022/12/29 08:07:42;;;;;;;;;;;;;;;6.72;100.00;99595.47;5060387;28;19988;-77
2022/12/29 08:10:08;;;;;;;;;;;;;;;6.71;100.00;99612.19;5082155;28;19928;-77
2022/12/29 08:12:33;;;;;;;;;;;;;;;6.69;100.00;99608.78;5063624;28;20375;-77
2022/12/29 08:14:58;;;;;;;;;;;;;;;6.70;100.00;99605.22;5069447;28;19932;-77
2022/12/29 08:17:24;;;;;;;;;;;;;;;6.70;100.00;99608.69;5082277;28;19927;-77
2022/12/29 08:19:49;;;;;;;;;;;;;;;6.72;100.00;99609.47;5083253;28;19928;-77
2022/12/29 08:22:15;;;;;;;;;;;;;;;6.73;100.00;99600.66;5061603;28;20733;-77
2022/12/29 08:24:40;;;;;;;;;;;;;;;6.76;100.00;99608.38;5081770;28;19951;-77
2022/12/29 08:27:05;;;;;;;;;;;;;;;6.76;100.00;99615.44;5058607;28;20015;-77
2022/12/29 08:29:31;;;;;;;;;;;;;;;6.73;100.00;99612.94;5081790;28;19920;-77
2022/12/29 08:31:56;;;;;;;;;;;;;;;6.71;100.00;99606.91;5081812;28;19955;-77
2022/12/29 08:34:22;;;;;;;;;;;;;;;6.69;100.00;99612.25;5081446;28;19928;-77
2022/12/29 08:36:47;;;;;;;;;;;;;;;6.69;100.00;99609.63;5081503;28;19932;-77
2022/12/29 08:39:13;;;;;;;;;;;;;;;6.68;100.00;99602.66;5082127;28;19939;-77
2022/12/29 08:41:39;;;;;;;;;;;;;;;6.69;100.00;99609.63;5083173;28;20149;-77
2022/12/29 08:44:04;;;;;;;;;;;;;;;6.69;100.00;99606.16;5058944;28;20371;-77
2022/12/29 08:46:29;;;;;;;;;;;;;;;6.66;100.00;99605.34;5060528;28;19966;-77
2022/12/29 08:48:55;;;;;;;;;;;;;;;6.66;100.00;99607.97;5079773;28;20387;-77
2022/12/29 08:51:20;;;;;;;;;;;;;;;6.66;100.00;99607.97;5061669;28;19941;-78
2022/12/29 08:53:46;;;;;;;;;;;;;;;6.65;100.00;99610.72;5078324;28;20402;-78
2022/12/29 08:56:11;;;;;;;;;;;;;;;6.61;100.00;99612.63;5060420;28;19928;-78
2022/12/29 08:58:37;;;;;;;;;;;;;;;6.60;100.00;99618.81;5082344;28;19956;-78
2022/12/29 09:01:02;;;;;;;;;;;;;;;6.59;100.00;99605.75;5079957;28;20079;-78
2022/12/29 09:03:28;;;;;;;;;;;;;;;6.58;100.00;99615.41;5062109;28;19924;-78
2022/12/29 09:05:54;;;;;;;;;;;;;;;6.58;100.00;99611.94;5081122;28;19932;-78
2022/12/29 09:08:20;;;;;;;;;;;;;;;6.58;100.00;99628.56;5061248;28;19959;-78
2022/12/29 09:10:45;;;;;;;;;;;;;;;6.58;100.00;99620.66;5046404;28;20003;-77
2022/12/29 09:13:14;;;;;;;;;;;;;;;6.59;100.00;99618.91;5081962;28;19928;-77
2022/12/29 09:15:39;;;;;;;;;;;;;;;6.60;100.00;99618.81;5078229;28;19938;-77
2022/12/29 09:18:05;;;;;;;;;;;;;;;6.61;100.00;99617.91;5062206;28;19931;-77
2022/12/29 09:20:30;;;;;;;;;;;;;;;6.62;100.00;99624.84;5059804;28;20457;-77
2022/12/29 09:22:56;;;;;;;;;;;;;;;6.62;100.00;99630.13;5079011;28;20026;-77
2022/12/29 09:25:24;;;;;;;;;;;;;;;6.63;100.00;99615.16;5080460;28;19928;-77
2022/12/29 09:27:49;;;;;;;;;;;;;;;6.62;100.00;99640.63;5078468;28;19931;-76
2022/12/29 09:30:15;;;;;;;;;;;;;;;6.63;100.00;99646.72;5060330;28;20660;-78
2022/12/29 09:32:40;;;;;;;;;;;;;;;6.63;100.00;99657.25;5078250;28;21721;-78
2022/12/29 09:35:06;;;;;;;;;;;;;;;6.63;100.00;99658.13;5060439;28;20249;-77
2022/12/29 09:37:31;;;;;;;;;;;;;;;6.62;100.00;99661.69;5079829;28;20375;-77
2022/12/29 09:39:57;;;;;;;;;;;;;;;6.59;100.00;99661.81;5078841;28;19938;-77
2022/12/29 09:42:24;;;;;;;;;;;;;;;6.58;100.00;99677.69;5077527;28;19959;-78
2022/12/29 09:45:08;;;;;;;;;;;;;;;6.54;100.00;99671.69;5060680;28;19935;-78
2022/12/29 09:47:33;;;;;;;;;;;;;;;6.51;100.00;99690.25;5080352;28;19924;-78
2022/12/29 09:50:03;;;;;;;;;;;;;;;6.47;100.00;99689.56;5061093;28;19931;-78
2022/12/29 09:52:34;;;;;;;;;;;;;;;6.45;100.00;99701.06;5060569;28;20039;-78
2022/12/29 09:55:03;;;;;;;;;;;;;;;6.43;100.00;99718.69;5079365;28;19951;-78
2022/12/29 09:57:34;;;;;;;;;;;;;;;6.42;100.00;99722.25;5048591;28;19932;-78
2022/12/29 10:00:03;;;;;;;;;;;;;;;6.42;100.00;99717.00;5059861;28;19928;-77
2022/12/29 10:02:31;;;;;;;;;;;;;;;6.42;100.00;99715.19;5061399;28;19999;-79
2022/12/29 10:04:56;;;;;;;;;;;;;;;6.44;100.00;99730.91;5060691;28;20409;-78
2022/12/29 10:07:25;;;;;;;;;;;;;;;6.46;100.00;99735.19;5078856;28;20019;-78
2022/12/29 10:10:03;;;;;;;;;;;;;;;6.49;100.00;99731.56;5060461;28;20049;-78
2022/12/29 10:12:30;;;;;;;;;;;;;;;6.52;100.00;99734.91;5060552;28;19923;-78
2022/12/29 10:15:15;;;;;;;;;;;;;;;6.57;100.00;99736.44;5079769;28;20451;-78
2022/12/29 10:17:59;;;;;;;;;;;;;;;6.61;100.00;99738.00;5078422;28;20374;-78
2022/12/29 10:20:27;;;;;;;;;;;;;;;6.66;100.00;99743.91;5060696;28;20396;-78
2022/12/29 10:22:55;;;;;;;;;;;;;;;6.70;100.00;99752.53;5042927;28;20617;-76
2022/12/29 10:25:22;;;;;;;;;;;;;;;6.74;100.00;99756.69;5060996;28;19932;-76
2022/12/29 10:27:48;;;;;;;;;;;;;;;6.77;100.00;99756.56;5059412;28;19928;-76
2022/12/29 10:30:13;;;;;;;;;;;;;;;6.81;100.00;99763.38;5051514;28;21373;-75
2022/12/29 10:32:48;;;;;;;;;;;;;;;6.84;100.00;99771.13;5042556;28;19924;-76
2022/12/29 10:35:19;;;;;;;;;;;;;;;6.90;100.00;99760.31;5047346;28;19927;-77
2022/12/29 10:38:05;;;;;;;;;;;;;;;6.97;100.00;99770.56;5077107;28;20023;-77
2022/12/29 10:40:40;;;;;;;;;;;;;;;7.03;100.00;99765.84;5078027;28;20202;-76
2022/12/29 10:43:12;;;;;;;;;;;;;;;7.09;100.00;99769.97;5077715;28;20491;-77
2022/12/29 10:45:38;;;;;;;;;;;;;;;7.15;100.00;99780.19;5070667;28;20379;-77
2022/12/29 10:48:05;;;;;;;;;;;;;;;7.21;100.00;99776.44;5054578;28;19931;-77
2022/12/29 10:50:30;;;;;;;;;;;;;;;7.26;100.00;99789.38;5073748;28;19923;-77
2022/12/29 10:53:01;;;;;;;;;;;;;;;7.31;100.00;99792.63;5074572;28;20232;-77
2022/12/29 10:55:33;;;;;;;;;;;;;;;7.34;100.00;99800.38;5074421;28;19931;-77
2022/12/29 10:58:04;;;;;;;;;;;;;;;7.39;100.00;99802.78;5059823;28;21743;-77
2022/12/29 11:00:30;;;;;;;;;;;;;;;7.44;100.00;99806.03;5077105;28;19930;-78
2022/12/29 11:02:59;;;;;;;;;;;;;;;7.48;100.00;99824.25;5060342;28;19959;-76
2022/12/29 11:05:36;;;;;;;;;;;;;;;7.52;100.00;99803.03;5075771;28;21494;-77
2022/12/29 11:08:02;;;;;;;;;;;;;;;7.55;100.00;99816.03;5073922;28;19966;-77
2022/12/29 11:10:39;;;;;;;;;;;;;;;7.57;100.00;99819.47;5056451;28;20632;-76
2022/12/29 11:13:12;;;;;;;;;;;;;;;7.57;100.00;99824.75;5072717;28;19927;-78
2022/12/29 11:15:38;;;;;;;;;;;;;;;7.55;100.00;99823.94;5061860;28;20374;-77
2022/12/29 11:18:04;;;;;;;;;;;;;;;7.56;100.00;99830.91;5063146;28;20035;-77
2022/12/29 11:20:35;;;;;;;;;;;;;;;7.57;100.00;99840.56;5060131;28;19928;-77
2022/12/29 11:23:01;;;;;;;;;;;;;;;7.59;100.00;99836.88;5079292;28;19931;-77
2022/12/29 11:25:27;;;;;;;;;;;;;;;7.59;100.00;99842.16;5058919;28;19932;-77
2022/12/29 11:27:56;;;;;;;;;;;;;;;7.61;100.00;99853.50;5040927;28;19928;-76
2022/12/29 11:30:26;;;;;;;;;;;;;;;7.65;100.00;99856.84;5046753;28;19920;-77
2022/12/29 11:32:52;;;;;;;;;;;;;;;7.67;100.00;99860.22;5055832;28;20255;-77
2022/12/29 11:35:31;;;;;;;;;;;;;;;7.67;100.00;99870.78;5062706;28;19924;-77
2022/12/29 11:37:57;;;;;;;;;;;;;;;7.67;100.00;99881.31;5082825;28;19981;-77
2022/12/29 11:40:22;;;;;;;;;;;;;;;7.68;100.00;99877.75;5065535;28;19983;-76
2022/12/29 11:42:48;;;;;;;;;;;;;;;7.74;100.00;99890.63;5083283;28;19994;-77
2022/12/29 11:45:14;;;;;;;;;;;;;;;7.77;100.00;99892.25;5082631;28;19923;-76
2022/12/29 11:47:41;;;;;;;;;;;;;;;7.79;100.00;99900.09;5082858;28;19969;-77
2022/12/29 11:50:07;;;;;;;;;;;;;;;7.77;100.00;99907.19;5060556;28;19935;-75
2022/12/29 11:52:34;;;;;;;;;;;;;;;7.74;100.00;99903.78;5059851;28;19963;-75
2022/12/29 11:55:00;;;;;;;;;;;;;;;7.70;100.00;99920.69;5057097;28;19930;-77
2022/12/29 11:57:26;;;;;;;;;;;;;;;7.64;100.00;99918.34;5059788;28;20385;-76
2022/12/29 11:59:54;;;;;;;;;;;;;;;7.57;100.00;99919.56;5059492;28;20497;-76
2022/12/29 12:02:20;;;;;;;;;;;;;;;7.51;100.00;99935.66;5060280;28;19931;-77
2022/12/29 12:04:45;;;;;;;;;;;;;;;7.44;100.00;99935.97;5075524;28;20522;-75
2022/12/29 12:07:12;;;;;;;;;;;;;;;7.40;100.00;99937.00;5061957;28;20327;-77
2022/12/29 12:09:44;;;;;;;;;;;;;;;7.39;100.00;99934.44;5046362;28;19927;-77
2022/12/29 12:12:20;;;;;;;;;;;;;;;7.37;100.00;99942.44;5065016;28;19951;-75
2022/12/29 12:14:46;;;;;;;;;;;;;;;7.34;100.00;99943.44;5061844;28;20394;-75
2022/12/29 12:17:13;;;;;;;;;;;;;;;7.32;100.00;99947.88;5061455;28;19931;-76
2022/12/29 12:19:48;;;;;;;;;;;;;;;7.33;100.00;99956.66;5048166;28;20389;-76
2022/12/29 12:22:13;;;;;;;;;;;;;;;7.31;100.00;99956.72;5083103;28;20039;-76
2022/12/29 12:24:49;;;;;;;;;;;;;;;7.36;100.00;99966.19;5069229;28;20309;-76
2022/12/29 12:27:16;;;;;;;;;;;;;;;7.34;100.00;99968.91;5056794;28;20749;-76
2022/12/29 12:30:00;;;;;;;;;;;;;;;7.31;100.00;99969.06;5062872;28;19932;-76
2022/12/29 12:32:42;;;;;;;;;;;;;;;7.27;100.00;99978.88;5073615;28;19928;-76
2022/12/29 12:35:11;;;;;;;;;;;;;;;7.24;100.00;99983.41;5084908;28;19958;-75
2022/12/29 12:37:46;;;;;;;;;;;;;;;7.23;100.00;99979.09;5068634;28;20009;-76
2022/12/29 12:40:31;;;;;;;;;;;;;;;7.22;100.00;99988.75;5065419;28;20399;-76
2022/12/29 12:42:56;;;;;;;;;;;;;;;7.24;100.00;99993.94;5085080;28;19924;-75
2022/12/29 12:45:27;;;;;;;;;;;;;;;7.28;100.00;99991.09;5080287;28;21844;-76
2022/12/29 12:47:55;;;;;;;;;;;;;;;7.30;100.00;100009.47;5067330;28;19982;-75
2022/12/29 12:50:38;;;;;;;;;;;;;;;7.33;100.00;99998.78;5086855;28;19928;-76
2022/12/29 12:53:15;;;;;;;;;;;;;;;7.36;100.00;99998.66;5068041;28;20402;-76
2022/12/29 12:55:43;;;;;;;;;;;;;;;7.33;100.00;99997.03;5081556;28;20026;-76
2022/12/29 12:58:09;;;;;;;;;;;;;;;7.32;100.00;99987.38;5085149;28;19976;-76
2022/12/29 13:00:39;;;;;;;;;;;;;;;7.30;100.00;100009.47;5084028;28;19928;-76
2022/12/29 13:03:08;;;;;;;;;;;;;;;7.30;100.00;100012.09;5065880;28;19928;-76
2022/12/29 13:05:47;;;;;;;;;;;;;;;7.30;100.00;100014.75;5064730;28;19990;-76
2022/12/29 13:08:12;;;;;;;;;;;;;;;7.30;100.00;99999.78;5064105;28;20294;-76
2022/12/29 13:10:42;;;;;;;;;;;;;;;7.31;100.00;100013.81;5084137;28;20572;-76
2022/12/29 13:13:07;;;;;;;;;;;;;;;7.29;100.00;100011.25;5084751;28;19934;-76
2022/12/29 13:15:45;;;;;;;;;;;;;;;7.30;100.00;100009.47;5083065;28;19928;-76
2022/12/29 13:18:10;;;;;;;;;;;;;;;7.30;100.00;100014.75;5048578;28;19928;-77
2022/12/29 13:20:47;;;;;;;;;;;;;;;7.31;100.00;100021.72;5067906;28;19965;-76